createdAt,value
2023-12-30T00:00:53.854Z,0.63
2023-12-30T00:01:53.806Z,0.61
2023-12-30T00:02:53.828Z,0.62
2023-12-30T00:03:54.013Z,0.62
2023-12-30T00:04:53.980Z,0.62
2023-12-30T00:05:54.123Z,0.63
2023-12-30T00:06:54.148Z,0.64
2023-12-30T00:07:54.176Z,0.62
2023-12-30T00:08:54.260Z,0.64
2023-12-30T00:09:54.335Z,0.63
2023-12-30T00:10:54.382Z,0.63
2023-12-30T00:11:54.404Z,0.64
2023-12-30T00:12:54.522Z,0.65
2023-12-30T00:13:54.587Z,0.64
2023-12-30T00:14:54.616Z,0.63
2023-12-30T00:15:54.740Z,0.66
2023-12-30T00:16:54.745Z,0.64
2023-12-30T00:17:54.913Z,0.65
2023-12-30T00:18:55.038Z,0.64
2023-12-30T00:19:56.346Z,0.65
2023-12-30T00:20:55.104Z,0.64
2023-12-30T00:21:55.214Z,0.64
2023-12-30T00:22:55.240Z,0.62
2023-12-30T00:23:55.346Z,0.62
2023-12-30T00:24:55.386Z,0.63
2023-12-30T00:25:55.438Z,0.62
2023-12-30T00:26:55.511Z,0.63
2023-12-30T00:27:55.573Z,0.63
2023-12-30T00:28:55.821Z,0.61
2023-12-30T00:29:55.663Z,0.63
2023-12-30T00:30:55.783Z,0.63
2023-12-30T00:31:55.780Z,0.62
2023-12-30T00:32:55.982Z,0.62
2023-12-30T00:33:56.078Z,0.62
2023-12-30T00:34:55.996Z,0.62
2023-12-30T00:35:56.046Z,0.60
2023-12-30T00:36:56.117Z,0.59
2023-12-30T00:37:56.160Z,0.60
2023-12-30T00:38:56.275Z,0.60
2023-12-30T00:39:56.325Z,0.60
2023-12-30T00:40:56.350Z,0.60
2023-12-30T00:41:56.407Z,0.59
2023-12-30T00:42:56.513Z,0.59
2023-12-30T00:43:56.580Z,0.59
2023-12-30T00:44:56.599Z,0.59
2023-12-30T00:45:56.683Z,0.59
2023-12-30T00:46:56.709Z,0.57
2023-12-30T00:47:56.796Z,0.59
2023-12-30T00:48:58.205Z,0.58
2023-12-30T00:49:56.957Z,0.57
2023-12-30T00:50:56.955Z,0.57
2023-12-30T00:51:57.048Z,0.57
2023-12-30T00:52:57.081Z,0.57
2023-12-30T00:53:57.193Z,0.57
2023-12-30T00:54:57.255Z,0.56
2023-12-30T00:55:57.284Z,0.56
2023-12-30T00:56:57.318Z,0.57
2023-12-30T00:57:57.450Z,0.56
2023-12-30T00:58:57.460Z,0.56
2023-12-30T00:59:57.548Z,0.56
2023-12-30T01:00:57.683Z,0.55
2023-12-30T01:01:57.757Z,0.56
2023-12-30T01:02:57.735Z,0.55
2023-12-30T01:03:57.889Z,0.55
2023-12-30T01:04:57.878Z,0.56
2023-12-30T01:05:57.884Z,0.55
2023-12-30T01:06:57.978Z,0.55
2023-12-30T01:07:58.067Z,0.56
2023-12-30T01:08:58.097Z,0.56
2023-12-30T01:09:58.160Z,0.56
2023-12-30T01:10:58.222Z,0.58
2023-12-30T01:11:58.259Z,0.57
2023-12-30T01:12:58.449Z,0.57
2023-12-30T01:13:58.430Z,0.58
2023-12-30T01:14:58.477Z,0.56
2023-12-30T01:15:58.577Z,0.56
2023-12-30T01:16:58.619Z,0.57
2023-12-30T01:17:58.799Z,0.55
2023-12-30T01:18:58.814Z,0.57
2023-12-30T01:19:58.821Z,0.57
2023-12-30T01:20:58.878Z,0.56
2023-12-30T01:21:59.030Z,0.54
2023-12-30T01:22:59.060Z,0.56
2023-12-30T01:23:59.086Z,0.56
2023-12-30T01:24:59.178Z,0.56
2023-12-30T01:25:59.215Z,0.56
2023-12-30T01:26:59.271Z,0.55
2023-12-30T01:27:59.390Z,0.55
2023-12-30T01:28:59.407Z,0.54
2023-12-30T01:29:59.454Z,0.56
2023-12-30T01:30:59.607Z,0.56
2023-12-30T01:31:59.580Z,0.56
2023-12-30T01:32:59.860Z,0.53
2023-12-30T01:33:59.862Z,0.54
2023-12-30T01:34:59.804Z,0.54
2023-12-30T01:35:59.853Z,0.54
2023-12-30T01:36:59.954Z,0.54
2023-12-30T01:38:02.330Z,0.54
2023-12-30T01:39:00.026Z,0.54
2023-12-30T01:40:00.029Z,0.54
2023-12-30T01:40:59.993Z,0.54
2023-12-30T01:42:00.015Z,0.54
2023-12-30T01:43:00.444Z,0.53
2023-12-30T01:44:00.014Z,0.54
2023-12-30T01:44:59.999Z,0.54
2023-12-30T01:46:00.005Z,0.53
2023-12-30T01:46:59.993Z,0.54
2023-12-30T01:48:00.135Z,0.54
2023-12-30T01:49:00.126Z,0.55
2023-12-30T01:50:00.011Z,0.54
2023-12-30T01:51:00.025Z,0.53
2023-12-30T01:52:00.060Z,0.55
2023-12-30T01:53:00.152Z,0.54
2023-12-30T01:54:00.074Z,0.54
2023-12-30T01:55:00.042Z,0.54
2023-12-30T01:56:00.006Z,0.55
2023-12-30T01:57:00.013Z,0.54
2023-12-30T01:58:00.033Z,0.54
2023-12-30T01:59:00.023Z,0.54
2023-12-30T02:00:00.211Z,0.54
2023-12-30T02:01:00.107Z,0.55
2023-12-30T02:02:00.169Z,0.55
2023-12-30T02:03:00.398Z,0.55
2023-12-30T02:04:00.120Z,0.55
2023-12-30T02:05:00.067Z,0.54
2023-12-30T02:06:00.073Z,0.56
2023-12-30T02:07:00.061Z,0.54
2023-12-30T02:08:00.032Z,0.55
2023-12-30T02:09:00.077Z,0.54
2023-12-30T02:10:00.070Z,0.54
2023-12-30T02:11:00.095Z,0.55
2023-12-30T02:12:00.222Z,0.53
2023-12-30T02:13:00.711Z,0.54
2023-12-30T02:14:00.308Z,0.54
2023-12-30T02:15:00.337Z,0.52
2023-12-30T02:16:00.460Z,0.52
2023-12-30T02:17:00.482Z,0.52
2023-12-30T02:18:00.605Z,0.50
2023-12-30T02:19:00.806Z,0.51
2023-12-30T02:20:00.808Z,0.52
2023-12-30T02:21:00.729Z,0.52
2023-12-30T02:22:00.806Z,0.51
2023-12-30T02:23:01.209Z,0.51
2023-12-30T02:24:00.911Z,0.51
2023-12-30T02:25:01.099Z,0.50
2023-12-30T02:26:01.042Z,0.52
2023-12-30T02:27:01.105Z,0.51
2023-12-30T02:28:01.247Z,0.50
2023-12-30T02:29:01.293Z,0.52
2023-12-30T02:30:01.308Z,0.52
2023-12-30T02:31:01.408Z,0.51
2023-12-30T02:32:01.445Z,0.52
2023-12-30T02:33:01.892Z,0.52
2023-12-30T02:34:01.599Z,0.53
2023-12-30T02:35:01.724Z,0.53
2023-12-30T02:36:01.705Z,0.53
2023-12-30T02:37:01.777Z,0.53
2023-12-30T02:38:01.902Z,0.53
2023-12-30T02:39:01.882Z,0.53
2023-12-30T02:40:02.019Z,0.53
2023-12-30T02:41:02.035Z,0.54
2023-12-30T02:42:02.082Z,0.53
2023-12-30T02:43:02.333Z,0.53
2023-12-30T02:44:02.230Z,0.52
2023-12-30T02:45:02.300Z,0.52
2023-12-30T02:46:02.388Z,0.52
2023-12-30T02:47:02.433Z,0.52
2023-12-30T02:48:02.615Z,0.52
2023-12-30T02:49:02.625Z,0.52
2023-12-30T02:50:02.694Z,0.52
2023-12-30T02:51:02.732Z,0.53
2023-12-30T02:52:02.814Z,0.52
2023-12-30T02:53:03.077Z,0.52
2023-12-30T02:54:02.931Z,0.51
2023-12-30T02:55:03.040Z,0.51
2023-12-30T02:56:03.065Z,0.50
2023-12-30T02:57:03.146Z,0.51
2023-12-30T02:58:03.240Z,0.51
2023-12-30T02:59:03.278Z,0.52
2023-12-30T03:00:03.345Z,0.51
2023-12-30T03:01:03.460Z,0.51
2023-12-30T03:02:03.580Z,0.53
2023-12-30T03:03:03.787Z,0.52
2023-12-30T03:04:03.720Z,0.51
2023-12-30T03:05:03.919Z,0.52
2023-12-30T03:06:03.827Z,0.51
2023-12-30T03:07:03.998Z,0.53
2023-12-30T03:08:03.897Z,0.51
2023-12-30T03:09:03.989Z,0.53
2023-12-30T03:10:04.278Z,0.53
2023-12-30T03:11:04.165Z,0.53
2023-12-30T03:12:04.183Z,0.53
2023-12-30T03:13:04.685Z,0.52
2023-12-30T03:14:04.341Z,0.53
2023-12-30T03:15:04.390Z,0.52
2023-12-30T03:16:04.523Z,0.53
2023-12-30T03:17:04.534Z,0.51
2023-12-30T03:18:04.755Z,0.51
2023-12-30T03:19:04.916Z,0.51
2023-12-30T03:20:04.772Z,0.52
2023-12-30T03:21:04.778Z,0.50
2023-12-30T03:22:04.881Z,0.51
2023-12-30T03:23:05.075Z,0.50
2023-12-30T03:24:04.992Z,0.52
2023-12-30T03:25:05.083Z,0.51
2023-12-30T03:26:05.135Z,0.52
2023-12-30T03:27:05.200Z,0.50
2023-12-30T03:28:05.256Z,0.50
2023-12-30T03:29:05.306Z,0.51
2023-12-30T03:30:05.475Z,0.51
2023-12-30T03:31:05.590Z,0.51
2023-12-30T03:32:05.515Z,0.52
2023-12-30T03:33:05.932Z,0.53
2023-12-30T03:34:05.792Z,0.52
2023-12-30T03:35:05.758Z,0.52
2023-12-30T03:36:05.781Z,0.53
2023-12-30T03:37:05.870Z,0.54
2023-12-30T03:38:05.910Z,0.54
2023-12-30T03:39:05.983Z,0.54
2023-12-30T03:40:06.097Z,0.54
2023-12-30T03:41:06.100Z,0.55
2023-12-30T03:42:06.188Z,0.54
2023-12-30T03:43:06.553Z,0.56
2023-12-30T03:44:06.334Z,0.56
2023-12-30T03:45:06.364Z,0.54
2023-12-30T03:46:06.450Z,0.54
2023-12-30T03:47:06.519Z,0.55
2023-12-30T03:48:06.618Z,0.56
2023-12-30T03:49:06.754Z,0.54
2023-12-30T03:50:06.786Z,0.55
2023-12-30T03:51:06.825Z,0.54
2023-12-30T03:52:06.840Z,0.55
2023-12-30T03:53:06.923Z,0.55
2023-12-30T03:54:06.999Z,0.56
2023-12-30T03:55:07.074Z,0.56
2023-12-30T03:56:07.101Z,0.56
2023-12-30T03:57:07.175Z,0.56
2023-12-30T03:58:07.267Z,0.55
2023-12-30T03:59:07.312Z,0.55
2023-12-30T04:00:07.401Z,0.56
2023-12-30T04:01:07.629Z,0.56
2023-12-30T04:02:07.522Z,0.56
2023-12-30T04:03:07.648Z,0.56
2023-12-30T04:04:07.686Z,0.55
2023-12-30T04:05:07.783Z,0.56
2023-12-30T04:06:07.812Z,0.57
2023-12-30T04:07:07.916Z,0.56
2023-12-30T04:08:07.949Z,0.56
2023-12-30T04:09:08.006Z,0.56
2023-12-30T04:10:08.144Z,0.54
2023-12-30T04:11:08.212Z,0.55
2023-12-30T04:12:08.217Z,0.56
2023-12-30T04:13:08.328Z,0.56
2023-12-30T04:14:08.349Z,0.57
2023-12-30T04:15:08.433Z,0.56
2023-12-30T04:16:08.572Z,0.55
2023-12-30T04:17:08.578Z,0.55
2023-12-30T04:18:08.788Z,0.55
2023-12-30T04:19:08.864Z,0.56
2023-12-30T04:20:08.791Z,0.55
2023-12-30T04:21:08.822Z,0.58
2023-12-30T04:22:08.889Z,0.57
2023-12-30T04:23:08.950Z,0.57
2023-12-30T04:24:09.021Z,0.57
2023-12-30T04:25:09.149Z,0.57
2023-12-30T04:26:09.155Z,0.56
2023-12-30T04:27:09.208Z,0.56
2023-12-30T04:28:09.310Z,0.56
2023-12-30T04:29:09.358Z,0.57
2023-12-30T04:30:09.505Z,0.55
2023-12-30T04:31:09.581Z,0.58
2023-12-30T04:32:09.550Z,0.58
2023-12-30T04:33:09.705Z,0.58
2023-12-30T04:34:09.858Z,0.57
2023-12-30T04:35:09.759Z,0.57
2023-12-30T04:36:09.805Z,0.56
2023-12-30T04:37:09.909Z,0.58
2023-12-30T04:38:09.976Z,0.58
2023-12-30T04:39:10.039Z,0.58
2023-12-30T04:40:10.126Z,0.58
2023-12-30T04:41:10.128Z,0.57
2023-12-30T04:42:10.197Z,0.59
2023-12-30T04:43:10.287Z,0.58
2023-12-30T04:44:10.325Z,0.58
2023-12-30T04:45:10.404Z,0.59
2023-12-30T04:46:10.493Z,0.59
2023-12-30T04:47:10.536Z,0.59
2023-12-30T04:48:10.639Z,0.59
2023-12-30T04:49:10.744Z,0.58
2023-12-30T04:50:10.748Z,0.59
2023-12-30T04:51:10.802Z,0.58
2023-12-30T04:52:10.913Z,0.58
2023-12-30T04:53:10.953Z,0.59
2023-12-30T04:54:11.025Z,0.59
2023-12-30T04:55:11.176Z,0.59
2023-12-30T04:56:18.478Z,0.50
2023-12-30T04:57:18.512Z,0.50
2023-12-30T04:58:18.641Z,0.50
2023-12-30T04:59:18.503Z,0.50
2023-12-30T05:00:20.986Z,0.50
2023-12-30T05:01:18.567Z,0.50
2023-12-30T05:02:18.502Z,0.50
2023-12-30T05:03:18.548Z,0.50
2023-12-30T05:04:18.531Z,0.50
2023-12-30T05:05:18.505Z,0.50
2023-12-30T05:06:18.509Z,0.51
2023-12-30T05:07:18.530Z,0.50
2023-12-30T05:08:18.489Z,0.51
2023-12-30T05:09:18.526Z,0.50
2023-12-30T05:10:18.583Z,0.52
2023-12-30T05:11:18.505Z,0.51
2023-12-30T05:12:18.493Z,0.52
2023-12-30T05:13:18.616Z,0.52
2023-12-30T05:14:18.514Z,0.51
2023-12-30T05:15:18.493Z,0.50
2023-12-30T05:16:18.533Z,0.50
2023-12-30T05:17:18.504Z,0.50
2023-12-30T05:18:18.633Z,0.52
2023-12-30T05:19:18.840Z,0.52
2023-12-30T05:20:18.720Z,0.52
2023-12-30T05:21:18.760Z,0.53
2023-12-30T05:22:18.887Z,0.52
2023-12-30T05:23:18.910Z,0.52
2023-12-30T05:24:18.996Z,0.51
2023-12-30T05:25:19.052Z,0.51
2023-12-30T05:26:19.112Z,0.51
2023-12-30T05:27:19.192Z,0.53
2023-12-30T05:28:19.283Z,0.52
2023-12-30T05:29:19.303Z,0.52
2023-12-30T05:30:19.422Z,0.51
2023-12-30T05:31:19.523Z,0.51
2023-12-30T05:32:19.513Z,0.52
2023-12-30T05:33:19.714Z,0.51
2023-12-30T05:34:19.709Z,0.52
2023-12-30T05:35:19.724Z,0.52
2023-12-30T05:36:19.790Z,0.52
2023-12-30T05:37:19.897Z,0.52
2023-12-30T05:38:19.905Z,0.52
2023-12-30T05:39:19.995Z,0.51
2023-12-30T05:40:20.125Z,0.52
2023-12-30T05:41:20.138Z,0.52
2023-12-30T05:42:20.191Z,0.53
2023-12-30T05:43:20.355Z,0.51
2023-12-30T05:44:20.329Z,0.53
2023-12-30T05:45:20.396Z,0.51
2023-12-30T05:46:20.524Z,0.52
2023-12-30T05:47:20.556Z,0.52
2023-12-30T05:48:20.742Z,0.51
2023-12-30T05:49:20.772Z,0.51
2023-12-30T05:50:20.732Z,0.51
2023-12-30T05:51:23.104Z,0.52
2023-12-30T05:52:20.815Z,0.51
2023-12-30T05:53:20.798Z,0.51
2023-12-30T05:54:20.796Z,0.53
2023-12-30T05:55:20.820Z,0.54
2023-12-30T05:56:20.794Z,0.53
2023-12-30T05:57:20.789Z,0.55
2023-12-30T05:58:20.836Z,0.54
2023-12-30T05:59:20.839Z,0.55
2023-12-30T06:00:20.806Z,0.55
2023-12-30T06:01:20.880Z,0.54
2023-12-30T06:02:20.793Z,0.54
2023-12-30T06:03:20.824Z,0.55
2023-12-30T06:04:20.878Z,0.54
2023-12-30T06:05:20.805Z,0.54
2023-12-30T06:06:20.869Z,0.55
2023-12-30T06:07:20.878Z,0.54
2023-12-30T06:08:20.812Z,0.55
2023-12-30T06:09:20.821Z,0.55
2023-12-30T06:10:20.876Z,0.55
2023-12-30T06:11:20.825Z,0.54
2023-12-30T06:12:20.832Z,0.54
2023-12-30T06:13:20.853Z,0.54
2023-12-30T06:14:20.836Z,0.54
2023-12-30T06:15:21.154Z,0.55
2023-12-30T06:16:20.960Z,0.54
2023-12-30T06:17:20.972Z,0.54
2023-12-30T06:18:21.095Z,0.53
2023-12-30T06:19:21.241Z,0.53
2023-12-30T06:20:21.181Z,0.54
2023-12-30T06:21:21.265Z,0.54
2023-12-30T06:22:21.345Z,0.54
2023-12-30T06:23:21.392Z,0.53
2023-12-30T06:24:21.506Z,0.53
2023-12-30T06:25:21.584Z,0.52
2023-12-30T06:26:21.602Z,0.50
2023-12-30T06:27:21.666Z,0.51
2023-12-30T06:28:21.764Z,0.51
2023-12-30T06:29:21.863Z,0.50
2023-12-30T06:30:21.914Z,0.52
2023-12-30T06:31:22.047Z,0.51
2023-12-30T06:32:22.037Z,0.52
2023-12-30T06:33:22.212Z,0.52
2023-12-30T06:34:22.210Z,0.54
2023-12-30T06:35:22.230Z,0.53
2023-12-30T06:36:22.299Z,0.51
2023-12-30T06:37:22.398Z,0.52
2023-12-30T06:38:22.435Z,0.54
2023-12-30T06:39:22.506Z,0.52
2023-12-30T06:40:22.668Z,0.53
2023-12-30T06:41:22.644Z,0.54
2023-12-30T06:42:22.721Z,0.53
2023-12-30T06:43:22.801Z,0.52
2023-12-30T06:44:22.849Z,0.53
2023-12-30T06:45:22.889Z,0.53
2023-12-30T06:46:22.987Z,0.53
2023-12-30T06:47:23.052Z,0.53
2023-12-30T06:48:23.242Z,0.53
2023-12-30T06:49:23.250Z,0.54
2023-12-30T06:50:23.231Z,0.54
2023-12-30T06:51:23.303Z,0.53
2023-12-30T06:52:23.377Z,0.54
2023-12-30T06:53:23.487Z,0.53
2023-12-30T06:54:23.533Z,0.53
2023-12-30T06:55:28.908Z,0.54
2023-12-30T06:56:24.671Z,0.54
2023-12-30T06:57:23.591Z,0.54
2023-12-30T06:58:23.597Z,0.52
2023-12-30T06:59:23.609Z,0.53
2023-12-30T07:00:23.639Z,0.53
2023-12-30T07:01:23.708Z,0.52
2023-12-30T07:02:23.618Z,0.54
2023-12-30T07:03:23.625Z,0.52
2023-12-30T07:04:23.716Z,0.53
2023-12-30T07:05:23.777Z,0.53
2023-12-30T07:06:23.799Z,0.53
2023-12-30T07:07:23.905Z,0.53
2023-12-30T07:08:23.944Z,0.52
2023-12-30T07:09:24.004Z,0.52
2023-12-30T07:10:24.115Z,0.53
2023-12-30T07:11:24.148Z,0.52
2023-12-30T07:12:24.226Z,0.52
2023-12-30T07:13:24.331Z,0.53
2023-12-30T07:14:24.354Z,0.52
2023-12-30T07:15:24.443Z,0.52
2023-12-30T07:16:24.556Z,0.52
2023-12-30T07:17:24.591Z,0.52
2023-12-30T07:18:24.759Z,0.50
2023-12-30T07:19:24.855Z,0.52
2023-12-30T07:20:24.813Z,0.50
2023-12-30T07:21:24.873Z,0.51
2023-12-30T07:22:24.985Z,0.53
2023-12-30T07:23:25.015Z,0.53
2023-12-30T07:24:25.086Z,0.53
2023-12-30T07:25:25.226Z,0.53
2023-12-30T07:26:25.226Z,0.52
2023-12-30T07:27:25.303Z,0.51
2023-12-30T07:28:25.459Z,0.52
2023-12-30T07:29:25.466Z,0.53
2023-12-30T07:30:25.556Z,0.53
2023-12-30T07:31:25.613Z,0.52
2023-12-30T07:32:25.712Z,0.53
2023-12-30T07:33:25.873Z,0.53
2023-12-30T07:34:25.957Z,0.52
2023-12-30T07:35:25.903Z,0.52
2023-12-30T07:36:25.985Z,0.52
2023-12-30T07:37:26.123Z,0.52
2023-12-30T07:38:26.111Z,0.52
2023-12-30T07:39:26.217Z,0.52
2023-12-30T07:40:26.305Z,0.52
2023-12-30T07:41:26.331Z,0.52
2023-12-30T07:42:26.392Z,0.52
2023-12-30T07:43:26.472Z,0.52
2023-12-30T07:44:26.532Z,0.51
2023-12-30T07:45:26.610Z,0.51
2023-12-30T07:46:26.803Z,0.52
2023-12-30T07:47:26.784Z,0.51
2023-12-30T07:48:26.848Z,0.51
2023-12-30T07:49:26.952Z,0.51
2023-12-30T07:50:26.959Z,0.52
2023-12-30T07:51:27.042Z,0.51
2023-12-30T07:52:27.105Z,0.51
2023-12-30T07:53:27.204Z,0.51
2023-12-30T07:54:27.260Z,0.51
2023-12-30T07:55:27.355Z,0.52
2023-12-30T07:56:27.395Z,0.51
2023-12-30T07:57:27.461Z,0.50
2023-12-30T07:58:27.676Z,0.52
2023-12-30T07:59:27.610Z,0.50
2023-12-30T08:00:27.786Z,0.51
2023-12-30T08:01:27.804Z,0.52
2023-12-30T08:02:27.905Z,0.51
2023-12-30T08:03:27.913Z,0.50
2023-12-30T08:04:28.000Z,0.52
2023-12-30T08:05:28.035Z,0.51
2023-12-30T08:06:28.071Z,0.52
2023-12-30T08:07:28.167Z,0.52
2023-12-30T08:08:28.211Z,0.52
2023-12-30T08:09:28.304Z,0.52
2023-12-30T08:10:28.440Z,0.50
2023-12-30T08:11:28.446Z,0.51
2023-12-30T08:12:28.507Z,0.52
2023-12-30T08:13:28.637Z,0.52
2023-12-30T08:14:28.669Z,0.52
2023-12-30T08:15:28.714Z,0.53
2023-12-30T08:16:28.849Z,0.52
2023-12-30T08:17:28.930Z,0.52
2023-12-30T08:18:29.054Z,0.51
2023-12-30T08:19:29.066Z,0.52
2023-12-30T08:20:29.057Z,0.51
2023-12-30T08:21:29.164Z,0.51
2023-12-30T08:22:29.193Z,0.51
2023-12-30T08:23:29.236Z,0.51
2023-12-30T08:24:29.386Z,0.53
2023-12-30T08:25:29.396Z,0.52
2023-12-30T08:26:29.407Z,0.51
2023-12-30T08:27:29.472Z,0.52
2023-12-30T08:28:29.585Z,0.52
2023-12-30T08:29:29.650Z,0.53
2023-12-30T08:30:29.694Z,0.53
2023-12-30T08:31:29.792Z,0.53
2023-12-30T08:32:29.803Z,0.52
2023-12-30T08:33:29.925Z,0.52
2023-12-30T08:34:29.953Z,0.53
2023-12-30T08:35:29.980Z,0.53
2023-12-30T08:36:30.034Z,0.52
2023-12-30T08:37:30.191Z,0.54
2023-12-30T08:38:30.173Z,0.54
2023-12-30T08:39:30.273Z,0.53
2023-12-30T08:40:31.744Z,0.54
2023-12-30T08:41:30.316Z,0.54
2023-12-30T08:42:30.327Z,0.55
2023-12-30T08:43:30.438Z,0.54
2023-12-30T08:44:30.350Z,0.54
2023-12-30T08:45:30.343Z,0.54
2023-12-30T08:46:30.407Z,0.55
2023-12-30T08:47:30.374Z,0.54
2023-12-30T08:48:30.481Z,0.55
2023-12-30T08:49:30.393Z,0.55
2023-12-30T08:50:30.331Z,0.56
2023-12-30T08:51:30.334Z,0.56
2023-12-30T08:52:30.402Z,0.56
2023-12-30T08:53:30.345Z,0.56
2023-12-30T08:54:30.340Z,0.55
2023-12-30T08:55:30.365Z,0.55
2023-12-30T08:56:30.354Z,0.55
2023-12-30T08:57:30.353Z,0.56
2023-12-30T08:58:30.423Z,0.55
2023-12-30T08:59:30.335Z,0.56
2023-12-30T09:00:30.404Z,0.56
2023-12-30T09:01:30.660Z,0.56
2023-12-30T09:02:30.366Z,0.56
2023-12-30T09:03:30.396Z,0.55
2023-12-30T09:04:30.429Z,0.57
2023-12-30T09:05:30.391Z,0.55
2023-12-30T09:06:30.355Z,0.55
2023-12-30T09:07:30.394Z,0.55
2023-12-30T09:08:30.393Z,0.56
2023-12-30T09:09:30.396Z,0.56
2023-12-30T09:10:30.444Z,0.56
2023-12-30T09:11:30.360Z,0.55
2023-12-30T09:12:30.396Z,0.58
2023-12-30T09:13:30.389Z,0.55
2023-12-30T09:14:30.368Z,0.55
2023-12-30T09:15:30.395Z,0.57
2023-12-30T09:16:30.473Z,0.56
2023-12-30T09:17:30.462Z,0.56
2023-12-30T09:18:30.569Z,0.55
2023-12-30T09:19:30.663Z,0.55
2023-12-30T09:20:30.523Z,0.55
2023-12-30T09:21:30.590Z,0.56
2023-12-30T09:22:30.697Z,0.57
2023-12-30T09:23:30.752Z,0.55
2023-12-30T09:24:30.830Z,0.55
2023-12-30T09:25:30.966Z,0.56
2023-12-30T09:26:30.959Z,0.55
2023-12-30T09:27:31.005Z,0.55
2023-12-30T09:28:31.113Z,0.55
2023-12-30T09:29:31.221Z,0.56
2023-12-30T09:30:31.274Z,0.56
2023-12-30T09:31:31.314Z,0.54
2023-12-30T09:32:31.362Z,0.54
2023-12-30T09:33:31.626Z,0.55
2023-12-30T09:34:41.140Z,0.55
2023-12-30T09:35:32.664Z,0.55
2023-12-30T09:36:31.530Z,0.55
2023-12-30T09:37:31.560Z,0.54
2023-12-30T09:38:31.497Z,0.53
2023-12-30T09:39:31.477Z,0.55
2023-12-30T09:40:31.546Z,0.54
2023-12-30T09:41:31.488Z,0.53
2023-12-30T09:42:31.500Z,0.54
2023-12-30T09:43:31.539Z,0.53
2023-12-30T09:44:31.564Z,0.54
2023-12-30T09:45:31.640Z,0.53
2023-12-30T09:46:31.768Z,0.52
2023-12-30T09:47:31.914Z,0.53
2023-12-30T09:48:32.064Z,0.52
2023-12-30T09:49:31.864Z,0.53
2023-12-30T09:50:31.949Z,0.52
2023-12-30T09:51:32.000Z,0.52
2023-12-30T09:52:32.082Z,0.52
2023-12-30T09:53:32.111Z,0.53
2023-12-30T09:54:42.255Z,0.52
2023-12-30T09:55:33.220Z,0.52
2023-12-30T09:56:32.183Z,0.52
2023-12-30T09:57:32.192Z,0.52
2023-12-30T09:58:32.201Z,0.52
2023-12-30T09:59:32.196Z,0.53
2023-12-30T10:00:32.201Z,0.53
2023-12-30T10:01:32.368Z,0.52
2023-12-30T10:02:32.196Z,0.51
2023-12-30T10:03:32.353Z,0.53
2023-12-30T10:04:32.377Z,0.52
2023-12-30T10:05:32.386Z,0.51
2023-12-30T10:06:32.388Z,0.52
2023-12-30T10:07:32.468Z,0.52
2023-12-30T10:08:32.537Z,0.52
2023-12-30T10:09:32.604Z,0.51
2023-12-30T10:10:32.697Z,0.51
2023-12-30T10:11:32.688Z,0.52
2023-12-30T10:12:32.762Z,0.51
2023-12-30T10:13:32.845Z,0.53
2023-12-30T10:14:32.996Z,0.51
2023-12-30T10:15:32.937Z,0.51
2023-12-30T10:16:33.045Z,0.52
2023-12-30T10:17:33.124Z,0.50
2023-12-30T10:18:33.250Z,0.51
2023-12-30T10:19:33.216Z,0.51
2023-12-30T10:20:33.223Z,0.51
2023-12-30T10:21:33.294Z,0.51
2023-12-30T10:22:33.470Z,0.52
2023-12-30T10:23:33.433Z,0.51
2023-12-30T10:24:33.522Z,0.51
2023-12-30T10:25:33.654Z,0.51
2023-12-30T10:26:33.598Z,0.50
2023-12-30T10:27:33.653Z,0.51
2023-12-30T10:28:33.743Z,0.52
2023-12-30T10:29:43.166Z,0.50
2023-12-30T10:30:34.821Z,0.50
2023-12-30T10:31:33.814Z,0.51
2023-12-30T10:32:33.824Z,0.50
2023-12-30T10:33:33.816Z,0.51
2023-12-30T10:34:33.816Z,0.51
2023-12-30T10:35:33.767Z,0.51
2023-12-30T10:36:33.794Z,0.50
2023-12-30T10:37:33.824Z,0.51
2023-12-30T10:38:33.780Z,0.51
2023-12-30T10:39:33.836Z,0.51
2023-12-30T10:40:33.901Z,0.52
2023-12-30T10:41:34.012Z,0.51
2023-12-30T10:42:33.978Z,0.50
2023-12-30T10:43:34.107Z,0.50
2023-12-30T10:44:34.137Z,0.50
2023-12-30T10:45:34.134Z,0.52
2023-12-30T10:46:34.319Z,0.52
2023-12-30T10:47:34.276Z,0.51
2023-12-30T10:48:34.345Z,0.50
2023-12-30T10:49:34.528Z,0.52
2023-12-30T10:50:34.477Z,0.52
2023-12-30T10:51:34.475Z,0.51
2023-12-30T10:52:34.565Z,0.51
2023-12-30T10:53:34.566Z,0.51
2023-12-30T10:54:34.652Z,0.51
2023-12-30T10:55:34.756Z,0.51
2023-12-30T10:56:34.732Z,0.50
2023-12-30T10:57:34.797Z,0.50
2023-12-30T10:58:34.955Z,0.50
2023-12-30T10:59:34.965Z,0.51
2023-12-30T11:00:34.985Z,0.50
2023-12-30T11:01:35.156Z,0.50
2023-12-30T11:02:35.148Z,0.51
2023-12-30T11:03:35.217Z,0.52
2023-12-30T11:04:35.225Z,0.51
2023-12-30T11:05:35.306Z,0.51
2023-12-30T11:06:35.341Z,0.51
2023-12-30T11:07:35.393Z,0.52
2023-12-30T11:08:35.370Z,0.51
2023-12-30T11:09:35.465Z,0.52
2023-12-30T11:10:35.520Z,0.51
2023-12-30T11:11:35.539Z,0.52
2023-12-30T11:12:35.573Z,0.51
2023-12-30T11:13:35.657Z,0.51
2023-12-30T11:14:35.708Z,0.51
2023-12-30T11:15:35.756Z,0.51
2023-12-30T11:16:35.844Z,0.51
2023-12-30T11:17:35.864Z,0.51
2023-12-30T11:18:36.000Z,0.51
2023-12-30T11:19:36.091Z,0.51
2023-12-30T11:20:35.998Z,0.50
2023-12-30T11:21:36.110Z,0.50
2023-12-30T11:22:36.172Z,0.52
2023-12-30T11:23:36.166Z,0.51
2023-12-30T11:24:36.284Z,0.52
2023-12-30T11:25:36.339Z,0.53
2023-12-30T11:26:36.351Z,0.52
2023-12-30T11:27:36.383Z,0.52
2023-12-30T11:28:36.489Z,0.53
2023-12-30T11:29:36.517Z,0.50
2023-12-30T11:30:36.568Z,0.51
2023-12-30T11:31:36.662Z,0.51
2023-12-30T11:32:36.696Z,0.52
2023-12-30T11:33:36.821Z,0.51
2023-12-30T11:34:36.913Z,0.51
2023-12-30T11:35:36.856Z,0.52
2023-12-30T11:36:36.855Z,0.51
2023-12-30T11:37:37.077Z,0.51
2023-12-30T11:38:36.954Z,0.53
2023-12-30T11:39:37.048Z,0.51
2023-12-30T11:40:37.205Z,0.51
2023-12-30T11:41:37.179Z,0.50
2023-12-30T11:42:45.246Z,0.52
2023-12-30T11:43:38.246Z,0.51
2023-12-30T11:44:37.247Z,0.52
2023-12-30T11:45:37.195Z,0.50
2023-12-30T11:46:37.408Z,0.50
2023-12-30T11:47:37.193Z,0.51
2023-12-30T11:48:37.226Z,0.52
2023-12-30T11:49:37.272Z,0.53
2023-12-30T11:50:37.218Z,0.52
2023-12-30T11:51:37.204Z,0.52
2023-12-30T11:52:37.351Z,0.51
2023-12-30T11:53:37.236Z,0.51
2023-12-30T11:54:37.436Z,0.52
2023-12-30T11:55:37.550Z,0.51
2023-12-30T11:56:37.386Z,0.52
2023-12-30T11:57:37.449Z,0.51
2023-12-30T11:58:37.546Z,0.52
2023-12-30T11:59:37.580Z,0.50
2023-12-30T12:00:37.733Z,0.52
2023-12-30T12:01:37.757Z,0.51
2023-12-30T12:02:37.701Z,0.51
2023-12-30T12:03:37.778Z,0.50
2023-12-30T12:04:38.093Z,0.52
2023-12-30T12:05:37.874Z,0.51
2023-12-30T12:06:37.991Z,0.50
2023-12-30T12:07:37.988Z,0.52
2023-12-30T12:08:37.993Z,0.51
2023-12-30T12:09:38.101Z,0.51
2023-12-30T12:10:38.171Z,0.51
2023-12-30T12:11:38.189Z,0.52
2023-12-30T12:12:38.210Z,0.52
2023-12-30T12:13:38.331Z,0.52
2023-12-30T12:14:38.864Z,0.51
2023-12-30T12:15:38.410Z,0.52
2023-12-30T12:16:38.518Z,0.51
2023-12-30T12:17:38.614Z,0.52
2023-12-30T12:18:38.634Z,0.51
2023-12-30T12:19:38.731Z,0.52
2023-12-30T12:20:38.675Z,0.52
2023-12-30T12:21:38.712Z,0.52
2023-12-30T12:22:38.893Z,0.51
2023-12-30T12:23:38.805Z,0.51
2023-12-30T12:24:38.872Z,0.51
2023-12-30T12:25:38.946Z,0.51
2023-12-30T12:26:38.977Z,0.52
2023-12-30T12:27:39.021Z,0.50
2023-12-30T12:28:39.111Z,0.51
2023-12-30T12:29:39.139Z,0.51
2023-12-30T12:30:39.247Z,0.51
2023-12-30T12:31:39.266Z,0.51
2023-12-30T12:32:39.363Z,0.50
2023-12-30T12:33:39.448Z,0.52
2023-12-30T12:34:39.499Z,0.52
2023-12-30T12:35:39.500Z,0.51
2023-12-30T12:36:39.502Z,0.51
2023-12-30T12:37:39.758Z,0.52
2023-12-30T12:38:39.625Z,0.50
2023-12-30T12:39:39.705Z,0.51
2023-12-30T12:40:39.902Z,0.51
2023-12-30T12:41:39.775Z,0.50
2023-12-30T12:42:39.859Z,0.50
2023-12-30T12:43:39.937Z,0.51
2023-12-30T12:44:40.015Z,0.52
2023-12-30T12:45:40.040Z,0.51
2023-12-30T12:46:40.177Z,0.51
2023-12-30T12:47:40.191Z,0.52
2023-12-30T12:48:40.406Z,0.52
2023-12-30T12:49:40.261Z,0.51
2023-12-30T12:50:40.277Z,0.53
2023-12-30T12:51:40.708Z,0.52
2023-12-30T12:52:40.457Z,0.52
2023-12-30T12:53:40.468Z,0.53
2023-12-30T12:54:40.597Z,0.53
2023-12-30T12:55:40.638Z,0.53
2023-12-30T12:56:40.627Z,0.54
2023-12-30T12:57:40.695Z,0.52
2023-12-30T12:58:40.728Z,0.52
2023-12-30T12:59:40.842Z,0.53
2023-12-30T13:00:40.902Z,0.52
2023-12-30T13:01:40.931Z,0.52
2023-12-30T13:02:41.004Z,0.52
2023-12-30T13:03:41.036Z,0.51
2023-12-30T13:04:41.132Z,0.51
2023-12-30T13:05:41.167Z,0.51
2023-12-30T13:06:41.205Z,0.52
2023-12-30T13:07:41.296Z,0.51
2023-12-30T13:08:41.331Z,0.52
2023-12-30T13:09:41.374Z,0.51
2023-12-30T13:10:41.610Z,0.52
2023-12-30T13:11:41.494Z,0.50
2023-12-30T13:12:41.549Z,0.52
2023-12-30T13:13:41.637Z,0.53
2023-12-30T13:14:42.348Z,0.51
2023-12-30T13:15:41.741Z,0.52
2023-12-30T13:16:41.810Z,0.53
2023-12-30T13:17:41.891Z,0.53
2023-12-30T13:18:41.933Z,0.52
2023-12-30T13:19:42.039Z,0.51